Latest Weather Observations for Adelaide (West Terrace / ngayirdapira)

IDS60801

Issued at 5:21 pm CST Saturday 22 September 2018 (issued every 10 minutes, with the page automatically refreshed every 10 minutes)

About weather observations | Map of weather stations | Latest weather observations for SA | Other Formats
Station Details ID: 023000 Name: ADELAIDE (WEST TERRACE / NGAYIRDAPIRA) Lat: -34.93 Lon: 138.58 Height: 29.32 m
Data from the previous 72 hours. | See also: Recent months at Adelaide (West Terrace / ngayirdapira)
Date/Time
CST
Temp
°C
App
Temp
°C
Dew
Point
°C
Rel
Hum
%
Delta-T
°C
Wind Press
QNH
hPa
Press
MSL
hPa
Rain since
9am
mm
Dir  Spd
km/h
Gust
km/h
Spd
kts
Gust
kts
22/05:00pm 19.3 15.2 6.4 43 6.4 SW 17 30 9 16 1027.0 1027.0 0.0
22/04:30pm 20.1 15.6 4.2 35 7.6 SW 17 28 9 15 1026.5 1026.5 0.0
22/04:00pm 20.2 16.4 9.2 49 5.8 SSW 19 28 10 15 1026.5 1026.5 0.0
22/03:30pm 21.2 18.1 8.8 45 6.5 SW 15 28 8 15 1026.4 1026.4 0.0
22/03:00pm 21.3 18.2 8.9 45 6.5 SW 15 20 8 11 1026.5 1026.5 0.0
22/02:30pm 21.1 17.9 8.4 44 6.6 SW 15 24 8 13 1026.7 1026.7 0.0
22/02:00pm 21.2 18.5 8.8 45 6.6 WSW 13 20 7 11 1026.7 1026.7 0.0
22/01:30pm 20.7 18.3 8.7 46 6.3 SW 11 20 6 11 1027.0 1027.0 0.0
22/01:00pm 20.9 18.0 8.2 44 6.6 WSW 13 20 7 11 1027.2 1027.2 0.0
22/12:30pm 20.9 18.2 8.9 46 6.3 SW 13 19 7 10 1027.5 1027.5 0.0
22/12:00pm 20.5 18.1 8.5 46 6.2 WSW 11 17 6 9 1027.6 1027.6 0.0
22/11:30am 20.8 18.9 9.1 47 6.2 SW 9 15 5 8 1027.7 1027.7 0.0
22/11:00am 20.0 18.7 9.9 52 5.4 WSW 7 17 4 9 1027.9 1027.9 0.0
22/10:30am 19.6 18.5 8.3 48 5.8 SSW 4 9 2 5 1028.0 1028.0 0.0
22/10:00am 18.9 17.0 7.4 47 5.8 NW 7 13 4 7 1028.1 1028.1 0.0
22/09:30am 18.3 16.1 7.7 50 5.4 N 9 13 5 7 1028.1 1028.1 0.0
22/09:00am 17.6 15.7 7.6 52 5.0 NNE 7 11 4 6 1028.3 1028.3 0.0
22/08:30am 15.9 15.5 8.2 60 3.9 CALM 0 0 0 0 1028.1 1028.1 0.0
22/08:00am 13.7 13.2 7.7 67 3.0 CALM 0 0 0 0 1027.7 1027.7 0.0
22/07:30am 12.6 11.4 6.6 67 2.8 SE 2 6 1 3 1027.6 1027.6 0.0
22/07:00am 10.2 9.4 6.7 79 1.6 CALM 0 0 0 0 1027.5 1027.5 0.0
22/06:30am 8.0 6.4 6.5 90 0.7 SSW 4 7 2 4 1027.1 1027.1 0.0
22/06:00am 8.0 7.2 6.3 89 0.8 CALM 0 0 0 0 1026.5 1026.5 0.0
22/05:30am 8.3 7.5 6.3 87 0.9 CALM 0 0 0 0 1026.1 1026.1 0.0
22/05:00am 8.9 8.1 6.3 84 1.2 CALM 0 0 0 0 1025.9 1025.9 0.0
22/04:30am 9.2 8.4 6.5 83 1.2 CALM 0 0 0 0 1025.6 1025.6 0.0
22/04:00am 12.0 10.1 6.5 69 2.6 ENE 6 7 3 4 1025.5 1025.5 0.0
22/03:30am 10.6 9.1 6.7 77 1.8 NNE 4 7 2 4 1025.6 1025.6 0.0
22/03:00am 10.6 8.6 6.4 75 2.0 NE 6 9 3 5 1025.4 1025.4 0.0
22/02:30am 10.7 10.1 7.4 80 1.6 CALM 0 0 0 0 1025.7 1025.7 0.0
22/02:00am 10.7 9.8 7.8 82 1.4 ENE 2 6 1 3 1026.1 1026.1 0.0
22/01:30am 10.4 8.7 7.5 82 1.4 ENE 6 11 3 6 1026.2 1026.2 0.0
22/01:00am 10.5 9.5 7.4 81 1.5 ENE 2 7 1 4 1026.6 1026.6 0.0
22/12:30am 10.3 8.4 7.4 82 1.4 NE 7 9 4 5 1026.8 1026.8 0.0
22/12:00am 11.0 10.6 8.2 83 1.4 CALM 0 0 0 0 1027.0 1027.0 0.0
 
Date/Time
CST
Temp
°C
App
Temp
°C
Dew
Point
°C
Rel
Hum
%
Delta-T
°C
Wind Press
QNH
hPa
Press
MSL
hPa
Rain since
9am
mm
Dir  Spd
km/h
Gust
km/h
Spd
kts
Gust
kts
21/11:30pm 11.0 10.4 8.8 86 1.1 ENE 2 6 1 3 1027.2 1027.2 0.0
21/11:00pm 11.0 10.6 8.4 84 1.3 CALM 0 0 0 0 1027.3 1027.3 0.0
21/10:30pm 11.5 11.1 8.4 81 1.5 CALM 0 0 0 0 1027.3 1027.3 0.0
21/10:00pm 12.4 11.0 8.7 78 1.8 SE 6 7 3 4 1027.4 1027.4 0.0
21/09:30pm 11.5 10.0 8.5 82 1.5 SSE 6 7 3 4 1027.4 1027.4 0.0
21/09:00pm 12.3 12.0 8.8 79 1.7 CALM 0 0 0 0 1027.3 1027.3 0.0
21/08:30pm 13.7 12.3 9.0 73 2.4 NE 6 9 3 5 1026.8 1026.8 0.0
21/08:00pm 13.4 13.1 8.5 72 2.5 CALM 0 4 0 2 1026.9 1026.9 0.0
21/07:30pm 15.0 13.9 8.5 65 3.3 SSE 4 6 2 3 1026.5 1026.5 0.0
21/07:00pm 15.4 13.9 8.6 64 3.5 S 6 7 3 4 1026.3 1026.3 0.0
21/06:30pm 15.9 14.4 8.4 61 3.8 S 6 7 3 4 1026.2 1026.2 0.0
21/06:00pm 17.1 15.6 8.5 57 4.4 SW 6 7 3 4 1026.1 1026.1 0.0
21/05:30pm 18.3 16.2 8.3 52 5.1 WSW 9 13 5 7 1025.9 1025.9 0.0
21/05:00pm 19.1 17.6 8.4 50 5.5 WSW 6 11 3 6 1025.6 1025.6 0.0
21/04:30pm 18.9 16.9 8.8 52 5.2 SW 9 17 5 9 1025.4 1025.4 0.0
21/04:00pm 19.2 17.4 9.4 53 5.2 WSW 9 11 5 6 1025.4 1025.4 0.0
21/03:30pm 19.2 17.2 8.5 50 5.5 W 9 13 5 7 1025.7 1025.7 0.0
21/03:00pm 18.7 16.8 9.2 54 5.0 NNW 9 13 5 7 1026.1 1026.1 0.0
21/02:30pm 18.4 16.5 9.2 55 4.8 WNW 9 19 5 10 1026.5 1026.5 0.0
21/02:00pm 18.2 17.0 10.3 60 4.2 N 7 15 4 8 1026.8 1026.8 0.0
21/01:30pm 17.0 15.4 8.9 59 4.2 W 7 17 4 9 1027.2 1027.2 0.0
21/01:00pm 17.0 15.0 10.1 64 3.6 SW 11 17 6 9 1027.6 1027.6 0.0
21/12:30pm 16.2 14.7 9.2 63 3.6 SW 7 17 4 9 1027.8 1027.8 0.0
21/12:00pm 16.2 14.4 9.6 65 3.4 W 9 17 5 9 1028.5 1028.5 0.0
21/11:30am 16.0 13.9 9.9 67 3.2 WSW 11 15 6 8 1028.8 1028.8 0.0
21/11:00am 15.3 14.7 9.0 66 3.2 SW 2 6 1 3 1029.0 1029.0 0.0
21/10:30am 14.6 13.2 8.8 68 2.9 NW 6 11 3 6 1029.0 1029.0 0.0
21/10:00am 14.0 13.1 9.4 74 2.4 NNW 4 11 2 6 1029.1 1029.1 0.0
21/09:30am 13.4 11.6 9.5 77 2.0 NW 9 13 5 7 1029.1 1029.1 0.0
21/09:00am 13.0 11.7 9.1 77 2.0 N 6 9 3 5 1029.1 1029.1 0.0
21/08:30am 12.5 11.0 8.6 77 1.9 N 6 9 3 5 1028.9 1028.9 0.0
21/08:00am 12.2 11.2 8.7 79 1.7 NNW 4 7 2 4 1028.5 1028.5 0.0
21/07:30am 11.6 10.1 8.6 82 1.5 NNW 6 7 3 4 1028.2 1028.2 0.0
21/07:00am 11.2 9.5 8.4 83 1.4 N 7 9 4 5 1028.0 1028.0 0.0
21/06:30am 11.1 9.1 8.5 84 1.3 NNW 9 11 5 6 1027.7 1027.7 0.0
21/06:00am 11.9 11.3 8.9 82 1.5 N 2 7 1 4 1027.5 1027.5 0.0
21/05:30am 11.9 11.7 8.9 82 1.5 CALM 0 6 0 3 1027.1 1027.1 0.0
21/05:00am 11.9 10.5 8.7 81 1.6 NNW 6 9 3 5 1027.0 1027.0 0.0
21/04:30am 12.0 11.6 8.3 78 1.8 CALM 0 0 0 0 1026.8 1026.8 0.0
21/04:00am 11.6 11.2 8.1 79 1.7 CALM 0 0 0 0 1026.5 1026.5 0.0
21/03:30am 11.9 11.5 8.2 78 1.8 CALM 0 0 0 0 1026.1 1026.1 0.0
21/03:00am 12.0 11.6 8.1 77 1.9 CALM 0 0 0 0 1026.1 1026.1 0.0
21/02:30am 11.2 10.0 8.2 82 1.5 SSW 4 7 2 4 1026.3 1026.3 0.0
21/02:00am 11.9 11.4 8.0 77 1.9 CALM 0 0 0 0 1026.6 1026.6 0.0
21/01:30am 12.4 10.8 8.1 75 2.1 SSW 6 7 3 4 1026.9 1026.9 0.0
21/01:00am 12.5 11.3 8.0 74 2.2 WSW 4 7 2 4 1027.1 1027.1 0.0
21/12:30am 12.7 11.5 8.2 74 2.2 WSW 4 7 2 4 1027.1 1027.1 0.0
21/12:00am 12.9 11.2 8.2 73 2.3 WSW 7 11 4 6 1027.0 1027.0 0.0
 
Date/Time
CST
Temp
°C
App
Temp
°C
Dew
Point
°C
Rel
Hum
%
Delta-T
°C
Wind Press
QNH
hPa
Press
MSL
hPa
Rain since
9am
mm
Dir  Spd
km/h
Gust
km/h
Spd
kts
Gust
kts
20/11:30pm 13.1 11.6 8.4 73 2.3 W 6 13 3 7 1027.1 1027.1 0.0
20/11:00pm 13.1 12.6 9.2 77 2.0 SW 2 7 1 4 1027.1 1027.1 0.0
20/10:30pm 13.2 12.0 9.5 78 1.9 SW 6 9 3 5 1027.1 1027.1 0.0
20/10:00pm 13.2 12.8 8.3 72 2.4 CALM 0 0 0 0 1027.1 1027.1 0.0
20/09:30pm 13.3 11.2 8.4 72 2.4 SSW 9 13 5 7 1027.1 1027.1 0.0
20/09:00pm 13.3 11.8 8.4 72 2.4 SW 6 11 3 6 1027.0 1027.0 0.0
20/08:30pm 13.2 13.1 9.3 77 2.0 CALM 0 0 0 0 1026.8 1026.8 0.0
20/08:00pm 13.3 12.3 9.0 75 2.2 W 4 7 2 4 1026.5 1026.5 0.0
20/07:30pm 13.2 12.3 9.3 77 2.0 WSW 4 9 2 5 1026.3 1026.3 0.0
20/07:00pm 13.3 11.8 9.2 76 2.1 WSW 7 11 4 6 1026.0 1026.0 0.0
20/06:30pm 13.4 11.8 8.9 74 2.3 SW 7 11 4 6 1025.6 1025.6 0.0
20/06:00pm 13.5 11.1 8.8 73 2.4 SW 11 15 6 8 1025.3 1025.3 0.0
20/05:30pm 13.8 11.3 8.4 70 2.7 SW 11 17 6 9 1025.1 1025.1 0.0
20/05:00pm 14.3 11.9 8.7 69 2.8 SSW 11 19 6 10 1024.7 1024.7 0.0
20/04:30pm 14.7 11.8 8.2 65 3.2 SW 13 20 7 11 1024.5 1024.5 0.0
20/04:00pm 14.8 11.9 8.1 64 3.4 SSW 13 19 7 10 1024.5 1024.5 0.0
20/03:30pm 14.5 11.7 8.5 67 3.0 SW 13 19 7 10 1024.4 1024.4 0.0
20/03:00pm 14.6 11.4 8.3 66 3.1 WSW 15 22 8 12 1024.4 1024.4 0.0
20/02:30pm 14.9 12.0 8.2 64 3.3 WSW 13 17 7 9 1024.4 1024.4 0.0
20/02:00pm 15.4 13.9 9.1 66 3.2 WSW 7 17 4 9 1024.5 1024.5 0.0
20/01:30pm 14.4 12.3 9.6 73 2.5 WSW 11 20 6 11 1024.8 1024.8 0.0
20/01:00pm 14.4 11.8 9.2 71 2.7 SW 13 19 7 10 1025.0 1025.0 0.0
20/12:30pm 14.5 11.8 9.1 70 2.7 WSW 13 24 7 13 1025.0 1025.0 0.0
20/12:00pm 14.4 12.0 8.6 68 2.9 WSW 11 19 6 10 1025.2 1025.2 0.0
20/11:30am 13.8 11.1 9.0 73 2.4 SW 13 19 7 10 1025.3 1025.3 0.0
20/11:00am 14.5 11.7 8.5 67 3.0 W 13 19 7 10 1025.1 1025.1 0.0
20/10:30am 14.6 11.6 9.2 70 2.7 WSW 15 20 8 11 1025.2 1025.2 0.0
20/10:00am 14.3 12.0 10.5 78 2.0 W 13 17 7 9 1025.0 1025.0 0.0
20/09:30am 13.1 10.5 9.4 78 1.9 W 13 19 7 10 1024.7 1024.7 0.0
20/09:00am 13.5 11.2 9.0 74 2.3 W 11 17 6 9 1024.2 1024.2 5.0
20/08:30am 12.8 11.1 10.0 83 1.4 WNW 9 13 5 7 1023.7 1023.7 5.0
20/08:20am 12.8 12.0 11.0 89 0.9 NW 6 9 3 5 1023.6 1023.6 5.0
20/08:00am 11.7 11.9 10.6 93 0.6 CALM 0 6 0 3 1023.6 1023.6 5.0
20/07:32am 11.3 11.5 10.4 94 0.5 CALM 0 0 0 0 1023.5 1023.5 5.0
20/07:30am 11.3 11.5 10.5 95 0.4 CALM 0 0 0 0 1023.4 1023.4 5.0
20/07:00am 10.6 10.7 10.0 96 0.3 CALM 0 6 0 3 1023.0 1023.0 4.8
20/06:30am 9.9 9.7 9.1 95 0.4 CALM 0 0 0 0 1022.6 1022.6 4.8
20/06:00am 9.8 9.6 9.2 96 0.3 CALM 0 6 0 3 1022.0 1022.0 4.8
20/05:30am 9.9 9.8 9.3 96 0.3 CALM 0 0 0 0 1021.7 1021.7 4.8
20/05:00am 10.2 10.1 9.6 96 0.3 CALM 0 0 0 0 1021.3 1021.3 4.8
20/04:30am 10.4 10.4 9.8 96 0.3 CALM 0 0 0 0 1021.2 1021.2 4.8
20/04:07am 10.3 10.3 9.7 96 0.3 CALM 0 0 0 0 1021.0 1021.0 4.8
20/04:00am 10.5 10.5 9.7 95 0.4 CALM 0 0 0 0 1021.0 1021.0 4.8
20/03:30am 10.4 9.2 9.6 95 0.4 W 6 11 3 6 1020.9 1020.9 4.8
20/03:00am 10.3 10.2 9.5 95 0.4 CALM 0 0 0 0 1020.9 1020.9 4.8
20/02:30am 10.3 10.2 9.4 94 0.4 CALM 0 0 0 0 1020.9 1020.9 4.8
20/02:15am 10.3 9.5 9.5 95 0.4 NNE 4 7 2 4 1021.0 1021.0 4.8
20/02:00am 10.4 9.9 9.5 94 0.5 N 2 7 1 4 1020.9 1020.9 4.8
20/01:53am 10.5 9.7 9.6 94 0.5 NE 4 7 2 4 1021.0 1021.0 4.0
20/01:30am 10.4 9.1 9.3 93 0.5 NE 6 9 3 5 1021.1 1021.1 3.8
20/01:26am 10.4 8.9 9.3 93 0.5 NE 7 9 4 5 1021.2 1021.2 3.8
20/01:24am 10.4 8.9 9.3 93 0.5 NE 7 9 4 5 1021.2 1021.2 3.8
20/01:12am 10.2 8.7 9.3 94 0.4 NE 7 9 4 5 1021.2 1021.2 3.8
20/01:00am 10.0 9.5 9.4 96 0.3 ENE 2 7 1 4 1021.2 1021.2 3.8
20/12:30am 9.2 8.9 8.6 96 0.3 CALM 0 0 0 0 1021.3 1021.3 3.8
20/12:03am 9.0 8.6 8.2 95 0.4 CALM 0 0 0 0 1021.3 1021.3 3.8
20/12:00am 9.0 8.6 8.2 95 0.4 CALM 0 0 0 0 1021.3 1021.3 3.8
 
Date/Time
CST
Temp
°C
App
Temp
°C
Dew
Point
°C
Rel
Hum
%
Delta-T
°C
Wind Press
QNH
hPa
Press
MSL
hPa
Rain since
9am
mm
Dir  Spd
km/h
Gust
km/h
Spd
kts
Gust
kts
19/11:30pm 9.1 8.7 8.3 95 0.4 CALM 0 0 0 0 1021.3 1021.3 3.8
19/11:05pm 8.7 8.2 7.8 94 0.4 CALM 0 0 0 0 1021.2 1021.2 3.8
19/11:00pm 8.6 8.1 7.7 94 0.4 CALM 0 0 0 0 1021.2 1021.2 3.8
19/10:30pm 8.9 8.4 7.7 92 0.6 CALM 0 0 0 0 1021.2 1021.2 3.8
19/10:21pm 9.1 8.6 7.9 92 0.6 CALM 0 0 0 0 1021.2 1021.2 3.8
19/10:00pm 9.6 9.1 8.0 90 0.8 CALM 0 0 0 0 1021.1 1021.1 3.8
19/09:39pm 10.0 9.6 8.4 90 0.8 CALM 0 0 0 0 1021.2 1021.2 3.8
19/09:30pm 9.8 9.3 7.9 88 0.9 CALM 0 0 0 0 1021.2 1021.2 3.8
19/09:08pm 9.9 8.1 7.8 87 1.0 WSW 7 11 4 6 1021.0 1021.0 3.8
19/09:00pm 10.0 8.2 7.9 87 1.0 WSW 7 11 4 6 1021.1 1021.1 3.8
19/08:50pm 10.3 8.6 8.4 88 0.9 WSW 7 11 4 6 1021.1 1021.1 3.6
19/08:44pm 10.5 8.8 8.4 87 1.0 WSW 7 11 4 6 1021.1 1021.1 3.4
19/08:30pm 10.7 9.1 8.8 88 0.9 SW 7 13 4 7 1020.9 1020.9 3.4
19/08:17pm 10.9 9.6 9.3 90 0.8 WSW 6 9 3 5 1020.9 1020.9 3.2
19/08:00pm 10.9 8.6 9.0 88 0.9 SW 11 24 6 13 1020.8 1020.8 3.2
19/07:57pm 10.8 8.4 8.7 87 1.0 WSW 11 24 6 13 1020.8 1020.8 3.2
19/07:51pm 10.9 8.3 9.2 89 0.8 WSW 13 24 7 13 1020.7 1020.7 3.0
19/07:41pm 11.2 9.5 9.8 91 0.7 WSW 9 15 5 8 1020.6 1020.6 3.0
19/07:36pm 11.2 10.1 9.8 91 0.7 WSW 6 11 3 6 1020.6 1020.6 2.8
19/07:30pm 11.2 10.8 9.8 91 0.7 SSW 2 7 1 4 1020.5 1020.5 2.8
19/07:21pm 11.1 10.6 9.4 89 0.9 SSE 2 9 1 5 1020.2 1020.2 2.6
19/07:01pm 11.6 9.7 9.2 85 1.2 SSW 9 13 5 7 1020.2 1020.2 2.0
19/07:00pm 11.6 9.7 9.0 84 1.3 SSW 9 13 5 7 1020.2 1020.2 2.0
19/06:30pm 11.9 9.9 8.6 80 1.6 SSW 9 13 5 7 1019.8 1019.8 1.2
19/06:00pm 12.2 9.7 8.3 77 1.9 SSW 11 19 6 10 1019.8 1019.8 1.2
19/05:30pm 12.2 9.3 8.3 77 1.9 WSW 13 17 7 9 1019.4 1019.4 1.2

Other Formats:

Comma delimited format used in spreadsheet applications
http://www.bom.gov.au/fwo/IDS60801/IDS60801.94648.axf

JavaScript Object Notation format (JSON) in row-major order
http://www.bom.gov.au/fwo/IDS60801/IDS60801.94648.json